• Join FlightAware (Why Join?)
  • Login
  • US Flag 
07:49PM EST


 

Airport Tracker/Info


-or-


 

Live Flight TrackerFlight Track Log ✈ ASQ5875 ✈ 03-May-2013 ✈ CYYZ - KORD

Flight Track Log - Related Links

Times and Time Zones

All times are in EDT time to prevent confusion due to time zone crossing. See the ASQ5875 flight status page for this flight to view local times or setup timezone preferences in your user account.

Time Position Orientation Groundspeed Altitude Reporting Facility
EDT Latitude Longitude Course Direction KTS MPH feet Rate Location/Type
09:24PM 43.6667 -79.5833 47° Northeast 290 334 1,000  Level Toronto Center
09:25PM 43.7000 -79.5333 47° Northeast 190 219 3,000 1,860 Climbing Toronto Center
09:26PM 43.7667 -79.5000 20° North 260 299 4,800 1,920 Climbing Toronto Center
09:27PM 43.8333 -79.5167 350° North 280 322 6,900 1,080 Climbing Toronto Center
09:28PM 43.8667 -79.6167 295° West 270 311 7,000 60 Climbing Toronto Center
09:29PM 43.8500 -79.7333 259° West 270 311 7,100  Climbing Toronto Center
09:30PM 43.8333 -79.8167 255° West 270 311 7,100 300 Level Toronto Center
09:31PM 43.8167 -79.9333 259° West 280 322 7,700 1,500 Climbing Toronto Center
09:32PM 43.8000 -80.0333 257° West 280 322 10,100 2,220 Climbing Toronto Center
09:33PM 43.8000 -80.1333 270° West 300 345 12,200 2,100 Climbing Toronto Center
09:34PM 43.7833 -80.2833 261° West 310 357 14,400 2,100 Climbing Toronto Center
09:35PM 43.7667 -80.4000 259° West 310 357 16,500 1,920 Climbing Toronto Center
09:36PM 43.7500 -80.5167 259° West 310 357 18,300 1,260 Climbing Toronto Center
09:37PM 43.7167 -80.6167 245° Southwest 330 380 19,100 720 Climbing Toronto Center
09:38PM 43.7000 -80.7667 261° West 370 426 19,800 780 Climbing Toronto Center
09:39PM 43.6500 -80.9167 245° Southwest 390 449 20,700 960 Climbing Toronto Center
09:40PM 43.6167 -81.0667 253° West 400 460 21,800 1,140 Climbing Toronto Center
09:41PM 43.5833 -81.2167 253° West 410 472 23,000 960 Climbing Toronto Center
09:42PM 43.5667 -81.3667 261° West 410 472 23,800 720 Climbing Toronto Center
09:43PM 43.5667 -81.5167 270° West 420 483 24,500 600 Climbing Toronto Center
09:44PM 43.5500 -81.6833 262° West 430 495 25,100 780 Climbing Toronto Center
09:45PM 43.5333 -81.8333 261° West 430 495 26,100 960 Climbing Toronto Center
09:46PM 43.5167 -82.0167 263° West 430 495 27,100 960 Climbing Toronto Center
09:47PM 43.5208 -82.1492 273° West 425 489 27,900 960 Climbing Cleveland Center
09:48PM 43.4978 -82.3003 258° West 425 489 28,900 960 Climbing Cleveland Center
09:49PM 43.4497 -82.4447 245° Southwest 412 474 29,900 960 Climbing Cleveland Center
09:50PM 43.3972 -82.5858 243° Southwest 417 480 30,900 960 Climbing Cleveland Center
09:51PM 43.3467 -82.7300 244° Southwest 417 480 31,900 540 Climbing Cleveland Center
09:52PM 43.2919 -82.8764 243° Southwest 422 486 32,000  Climbing Cleveland Center
09:53PM 43.2322 -83.0367 243° Southwest 445 512 32,000  Level Cleveland Center
09:54PM 43.1769 -83.1853 243° Southwest 455 524 32,000  Level Cleveland Center
09:55PM 43.1214 -83.3394 244° Southwest 455 524 32,000  Level Cleveland Center
09:56PM 43.0611 -83.4931 242° Southwest 455 524 32,000  Level Cleveland Center
09:57PM 43.0053 -83.6439 243° Southwest 455 524 32,000  Level Cleveland Center
09:58PM 42.9592 -83.8033 248° West 460 529 32,000  Level Cleveland Center
09:59PM 42.9439 -83.9697 263° West 446 513 32,000  Level Cleveland Center
10:00PM 42.9264 -84.1392 262° West 452 520 32,000  Level Cleveland Center
10:02PM 42.8978 -84.4481 263° West 447 514 32,000  Level Chicago Center
10:03PM 42.8808 -84.6139 262° West 445 512 32,000  Level Chicago Center
10:04PM 42.8606 -84.8128 262° West 441 507 32,000  Level Chicago Center
10:05PM 42.8433 -84.9767 262° West 438 504 32,000  Level Chicago Center
10:06PM 42.8253 -85.1436 262° West 444 511 32,000  Level Chicago Center
10:07PM 42.8069 -85.3117 262° West 447 514 32,000 -540 Level Chicago Center
10:08PM 42.7881 -85.4811 261° West 451 519 31,000 -1,440 Descending Chicago Center
10:09PM 42.7603 -85.6433 257° West 440 506 29,100 -2,160 Descending Chicago Center
10:10PM 42.7308 -85.8094 256° West 446 513 26,600 -2,580 Descending Chicago Center
10:11PM 42.6997 -85.9831 256° West 463 533 23,900 -2,580 Descending Chicago Center
10:12PM 42.6681 -86.1492 256° West 458 527 21,400 -1,860 Descending Chicago Center
10:13PM 42.6400 -86.3047 256° West 434 499 20,100 -1,740 Descending Chicago Center
10:14PM 42.6056 -86.4844 255° West 412 474 17,900 -2,400 Descending Chicago Center
10:15PM 42.5772 -86.6336 256° West 410 472 15,300 -2,280 Descending Chicago Center
10:16PM 42.5486 -86.7753 255° West 394 453 13,300 -1,800 Descending Chicago Center
10:17PM 42.5114 -86.9094 249° West 383 441 11,700 -1,560 Descending Chicago Center
10:18PM 42.4756 -87.0403 250° West 373 429 10,200 -840 Descending Chicago Center
10:20PM 42.4411 -87.1628 249° West 352 405 10,000 -180 Descending Chicago Center
10:21PM 42.4061 -87.2886 249° West 357 411 9,900  Descending Chicago Center
10:22PM 42.3675 -87.4286 250° West 354 407 10,000  Climbing Chicago Center
10:23PM 42.3242 -87.5494 244° Southwest 363 418 10,000  Level Chicago Center
10:24PM 42.2472 -87.6317 218° Southwest 355 409 10,000 -60 Level Chicago Center
10:25PM 42.1800 -87.7022 218° Southwest 304 350 9,900 -900 Descending Chicago Center
10:26PM 42.1167 -87.7833 224° Southwest 248 285 8,100 -1,440 Descending Chicago TRACON
10:27PM 42.1000 -87.8500 251° West 231 266 7,000 -600 Descending Chicago TRACON
10:28PM 42.1000 -87.9333 270° West 231 266 7,000  Level Chicago TRACON
10:29PM 42.1000 -88.0167 270° West 219 252 7,000 -540 Level Chicago TRACON
10:30PM 42.1000 -88.1000 270° West 220 253 6,000 -1,020 Descending Chicago TRACON
10:31PM 42.0906 -88.1775 261° West 222 255 5,000 -480 Descending Chicago Center
10:32PM 42.0833 -88.2581 263° West 219 252 5,000  Level Chicago Center
10:33PM 42.0633 -88.3236 248° West 207 238 5,000  Level Chicago Center
10:34PM 42.0050 -88.3300 185° South 177 204 5,000 -60 Level Chicago Center
10:35PM 41.9772 -88.3011 142° Southeast 185 213 4,900  Descending Chicago Center
10:36PM 41.9753 -88.2481 93° East 160 184 5,000 -180 Climbing Chicago Center
10:37PM 41.9714 -88.1828 95° East 177 204 4,600 -660 Descending Chicago Center
10:38PM 41.9667 -88.1167 95° East 166 191 3,800 -1,020 Descending Chicago TRACON
10:39PM 41.9667 -88.0667 90° East 164 189 2,700 -960 Descending Chicago TRACON
10:40PM 41.9667 -88.0167 90° East 121 139 1,900 -720 Descending Chicago TRACON
10:41PM 41.9667 -87.9667 90° East 117 135 1,300 -600 Descending Chicago TRACON
10:43PM 41.9667 -87.9000 90° East  Level FlightAware Approximate
10:50PM 41.9817 -87.9067 90° East  Level Estimated